Time;durP1;ratioP1;P1;durP2;ratioP2;P2;SDS_P1;SDS_P2;PMS_P1;PMS_P2;Temp;Humidity;BMP_temperature;BMP_pressure;BME280_temperature;BME280_humidity;BME280_pressure;Samples;Min_cycle;Max_cycle;Signal;HPM_P1;HPM_P2
2022/02/09 00:00:07;;;;;;;3.28;0.70;;;;;;;-2.15;77.72;98740.97;5007309;28;20129;-63
2022/02/09 00:02:46;;;;;;;2.20;0.60;;;;;;;-2.14;77.80;98740.00;4990891;28;20054;-64
2022/02/09 00:05:29;;;;;;;2.83;0.70;;;;;;;-2.18;78.36;98733.22;4990913;28;20517;-64
2022/02/09 00:10:21;;;;;;;2.03;0.57;;;;;;;-2.08;77.80;98736.16;4990400;28;20379;-63
2022/02/09 00:12:58;;;;;;;4.80;0.90;;;;;;;-2.10;77.50;98724.78;4974008;28;20380;-63
2022/02/09 00:15:33;;;;;;;2.97;0.85;;;;;;;-2.11;77.63;98725.75;4974312;28;20050;-63
2022/02/09 00:18:21;;;;;;;3.88;1.00;;;;;;;-2.13;77.67;98730.28;4959344;28;20133;-62
2022/02/09 00:21:17;;;;;;;2.35;0.70;;;;;;;-2.13;77.35;98730.28;4990224;28;20054;-64
2022/02/09 00:24:02;;;;;;;3.05;0.70;;;;;;;-2.33;77.22;98695.28;4962178;28;20058;-63
2022/02/09 00:27:07;;;;;;;3.55;0.70;;;;;;;-2.12;76.68;98726.66;4990744;28;20101;-62
2022/02/09 00:37:46;;;;;;;4.07;0.80;;;;;;;-2.13;77.21;98709.09;4989796;28;20080;-63
2022/02/09 01:40:40;;;;;;;5.95;0.95;;;;;;;-2.26;79.67;98736.31;4991733;28;20406;-63
2022/02/09 01:56:39;;;;;;;5.90;1.38;;;;;;;-2.40;80.33;98724.88;4977484;28;20042;-63
2022/02/09 01:59:05;;;;;;;4.75;1.05;;;;;;;-2.34;80.65;98738.59;4992687;28;20465;-63
2022/02/09 02:01:31;;;;;;;4.97;1.20;;;;;;;-2.39;81.63;98730.06;4993112;28;20053;-63
2022/02/09 02:03:57;;;;;;;5.75;1.42;;;;;;;-2.53;82.01;98709.72;4992524;28;20046;-63
2022/02/09 02:06:23;;;;;;;5.82;1.27;;;;;;;-2.57;82.02;98705.56;4960525;28;20482;-63
2022/02/09 02:08:51;;;;;;;6.35;1.85;;;;;;;-2.50;81.88;98724.56;4960454;28;20617;-63
2022/02/09 02:11:30;;;;;;;8.63;1.42;;;;;;;-2.61;82.39;98704.03;4977159;28;20532;-62
2022/02/09 02:16:35;;;;;;;5.00;1.40;;;;;;;-2.51;82.21;98736.09;4992685;28;20104;-63
2022/02/09 02:19:09;;;;;;;6.47;1.75;;;;;;;-2.53;82.19;98732.69;4977155;28;20185;-62
2022/02/09 02:26:52;;;;;;;6.95;1.77;;;;;;;-2.52;82.66;98734.41;4976607;28;20133;-63
2022/02/09 02:37:18;;;;;;;6.93;1.60;;;;;;;-2.54;83.23;98731.84;4976558;28;20159;-62
2022/02/09 03:17:15;;;;;;;8.88;2.65;;;;;;;-2.52;86.70;98739.72;4993140;28;20054;-63
2022/02/09 03:25:37;;;;;;;6.30;1.90;;;;;;;-2.41;85.09;98747.84;4965370;28;20089;-64
2022/02/09 03:47:28;;;;;;;8.95;2.45;;;;;;;-2.35;82.56;98739.50;4991299;28;20422;-64
2022/02/09 03:50:26;;;;;;;8.13;2.10;;;;;;;-2.33;83.01;98740.28;4963675;28;20493;-64
2022/02/09 03:58:04;;;;;;;7.93;2.03;;;;;;;-2.29;83.34;98741.81;4992076;28;20145;-64
2022/02/09 04:00:35;;;;;;;7.97;2.10;;;;;;;-2.29;83.42;98739.16;4974600;28;20050;-63
2022/02/09 04:03:02;;;;;;;;;;;;;;;-2.27;82.27;98734.59;4959326;28;20046;-64
2022/02/09 04:05:28;;;;;;;6.40;2.15;;;;;;;-2.24;81.59;98742.34;5006343;28;19921;-64
2022/02/09 04:07:56;;;;;;;6.82;2.22;;;;;;;-2.24;81.34;98745.00;4942248;28;20077;-62
2022/02/09 04:10:29;;;;;;;6.15;1.92;;;;;;;-2.29;81.94;98731.22;4958502;28;20163;-63
2022/02/09 04:15:45;;;;;;;8.98;2.20;;;;;;;-2.17;81.04;98734.06;4991304;28;20054;-65
2022/02/09 04:18:30;;;;;;;7.90;2.35;;;;;;;-2.31;81.32;98711.91;4976575;28;20046;-64
2022/02/09 04:39:53;;;;;;;7.57;2.45;;;;;;;-2.23;81.70;98736.16;4989868;28;20038;-65
2022/02/09 04:42:44;;;;;;;8.75;2.88;;;;;;;-2.25;81.63;98734.53;4975444;28;20134;-65
2022/02/09 04:48:02;;;;;;;7.18;2.20;;;;;;;-2.26;82.44;98736.31;4976363;28;20101;-65
2022/02/09 04:50:33;;;;;;;8.60;2.70;;;;;;;-2.27;82.77;98739.03;4974929;28;20046;-64
2022/02/09 04:53:22;;;;;;;7.45;2.53;;;;;;;-2.34;83.19;98737.72;4975146;28;20402;-63
2022/02/09 04:55:56;;;;;;;9.75;3.13;;;;;;;-2.33;82.70;98745.59;4960435;28;20142;-64
2022/02/09 04:58:37;;;;;;;9.25;3.50;;;;;;;-2.40;83.45;98732.81;4973830;28;20092;-64
2022/02/09 05:01:43;;;;;;;10.85;3.35;;;;;;;-2.35;83.76;98749.25;4943617;28;20057;-64
2022/02/09 05:21:14;;;;;;;9.18;2.80;;;;;;;-2.28;83.00;98751.44;4991670;28;20150;-64
2022/02/09 05:28:20;;;;;;;10.13;3.22;;;;;;;-2.32;81.61;98752.56;4956071;28;20038;-65
2022/02/09 05:30:53;;;;;;;8.85;3.38;;;;;;;-2.27;81.88;98760.22;4947951;28;20071;-65
2022/02/09 05:33:19;;;;;;;10.02;3.55;;;;;;;-2.29;81.89;98755.03;4991964;28;20493;-65
2022/02/09 05:35:45;;;;;;;10.55;3.30;;;;;;;-2.29;82.39;98762.97;4973689;28;20384;-66
2022/02/09 05:38:12;;;;;;;10.80;3.00;;;;;;;-2.33;82.32;98771.19;4975600;28;20049;-65
2022/02/09 05:40:39;;;;;;;9.50;3.70;;;;;;;-2.32;82.72;98757.00;4994264;28;20050;-64
2022/02/09 05:43:06;;;;;;;8.80;3.45;;;;;;;-2.34;82.81;98759.78;5000378;28;20047;-65
2022/02/09 05:56:20;;;;;;;9.65;3.45;;;;;;;-2.29;84.46;98762.97;4988203;28;20101;-66
2022/02/09 05:58:51;;;;;;;15.18;3.85;;;;;;;-2.26;84.48;98768.09;4957552;28;20046;-65
2022/02/09 06:01:17;;;;;;;;;;;;;;;-2.25;84.40;98767.13;4989257;28;20394;-66
2022/02/09 06:03:43;;;;;;;11.27;4.22;;;;;;;-2.30;85.38;98761.28;4999014;28;20388;-65
2022/02/09 06:06:09;;;;;;;14.60;4.15;;;;;;;-2.25;84.51;98769.78;4970853;28;20108;-65
2022/02/09 06:08:39;;;;;;;9.68;3.50;;;;;;;-2.19;84.15;98768.56;4996019;28;21176;-66
2022/02/09 06:11:25;;;;;;;12.18;4.40;;;;;;;-2.20;83.95;98773.00;4979903;28;20038;-65
2022/02/09 06:14:16;;;;;;;10.30;4.10;;;;;;;-2.25;84.94;98764.50;4993797;28;20072;-65
2022/02/09 06:22:01;;;;;;;11.00;4.28;;;;;;;-2.09;84.11;98779.44;5009127;28;20037;-65
2022/02/09 06:24:27;;;;;;;14.73;5.05;;;;;;;-2.03;83.80;98779.06;4995322;28;20042;-65
2022/02/09 06:26:53;;;;;;;13.77;5.30;;;;;;;-2.04;84.36;98778.22;4989863;28;20049;-66
2022/02/09 06:29:19;;;;;;;13.20;4.97;;;;;;;-2.00;83.87;98765.66;4968686;28;20046;-66
2022/02/09 06:31:46;;;;;;;13.68;5.07;;;;;;;-1.86;84.06;98781.53;4968334;28;20446;-65
2022/02/09 06:34:15;;;;;;;15.85;5.28;;;;;;;-1.78;84.27;98789.00;4993878;28;20057;-66
2022/02/09 06:36:45;;;;;;;15.45;5.25;;;;;;;-1.71;83.71;98790.34;5018611;28;20040;-64
2022/02/09 06:39:13;;;;;;;13.27;4.70;;;;;;;-1.75;83.17;98794.97;4967671;28;20053;-65
2022/02/09 06:41:41;;;;;;;12.18;4.45;;;;;;;-1.75;83.22;98791.47;4987035;28;20046;-65
2022/02/09 06:44:07;;;;;;;11.63;4.38;;;;;;;-1.65;83.52;98800.53;4993489;28;20068;-65
2022/02/09 06:46:36;;;;;;;9.95;4.28;;;;;;;-1.54;82.71;98802.50;5024130;28;20041;-66
2022/02/09 06:49:05;;;;;;;10.98;4.50;;;;;;;-1.54;82.80;98799.84;4984866;28;20042;-65
2022/02/09 06:51:39;;;;;;;13.77;4.97;;;;;;;-1.61;82.67;98801.19;4998266;28;20073;-65
2022/02/09 06:54:31;;;;;;;10.82;4.07;;;;;;;-1.48;82.44;98807.44;4999788;28;20190;-64
2022/02/09 06:59:28;;;;;;;12.00;4.15;;;;;;;-1.25;81.99;98814.78;4995294;28;20049;-67
2022/02/09 07:02:05;;;;;;;10.63;3.88;;;;;;;-1.16;81.67;98804.56;4990137;28;20077;-66
2022/02/09 07:04:35;;;;;;;;;;;;;;;-1.17;80.97;98810.78;5005475;28;20123;-66
2022/02/09 07:07:01;;;;;;;10.10;4.00;;;;;;;-1.31;80.76;98817.84;5011118;28;19918;-66
2022/02/09 07:09:27;;;;;;;10.05;3.63;;;;;;;-1.13;81.28;98817.59;5026772;28;20061;-66
2022/02/09 07:11:54;;;;;;;14.85;4.43;;;;;;;-1.02;80.67;98809.81;5029881;28;20120;-65
2022/02/09 07:14:25;;;;;;;10.23;3.25;;;;;;;-1.06;80.52;98813.59;5013703;28;20302;-65
2022/02/09 07:16:51;;;;;;;11.82;3.45;;;;;;;-1.05;80.39;98816.16;5011528;28;20044;-65
2022/02/09 07:19:17;;;;;;;8.13;3.08;;;;;;;-0.47;78.00;98811.50;4996667;28;20196;-65
2022/02/09 07:21:44;;;;;;;8.63;2.67;;;;;;;-0.33;77.47;98810.53;4993711;28;20641;-65
2022/02/09 07:24:20;;;;;;;9.93;3.20;;;;;;;-0.42;77.39;98814.66;4993189;28;20465;-66
2022/02/09 07:29:14;;;;;;;10.68;3.65;;;;;;;1.65;69.20;98819.41;4963019;28;20038;-66
2022/02/09 07:31:40;;;;;;;8.65;4.30;;;;;;;4.63;59.73;98822.75;4993823;28;20045;-66
2022/02/09 07:34:06;;;;;;;9.15;2.90;;;;;;;5.91;52.18;98806.75;4966939;28;20058;-66
2022/02/09 07:36:35;;;;;;;8.65;3.58;;;;;;;6.79;50.02;98810.94;4992927;28;20056;-68
2022/02/09 07:39:06;;;;;;;9.32;3.63;;;;;;;6.62;48.79;98771.44;5019829;28;20140;-66
2022/02/09 07:41:34;;;;;;;8.05;3.40;;;;;;;6.95;48.75;98816.56;4995909;28;20052;-66
2022/02/09 07:47:04;;;;;;;7.60;3.15;;;;;;;6.56;49.18;98815.00;4999066;28;20157;-66
2022/02/09 07:50:17;;;;;;;;;;;;;;;8.63;44.95;98824.88;4971959;28;20101;-66
2022/02/09 07:52:25;;;;;;;6.70;2.60;;;;;;;9.86;42.25;98835.06;4979128;28;19922;-66
2022/02/09 07:54:53;;;;;;;8.65;2.70;;;;;;;9.83;40.73;98813.81;4974808;28;20060;-65
2022/02/09 07:57:19;;;;;;;8.32;3.30;;;;;;;10.71;40.32;98818.50;4993890;28;20139;-64
2022/02/09 07:59:45;;;;;;;9.27;2.75;;;;;;;11.56;37.45;98817.84;4960704;28;20490;-67
2022/02/09 08:02:11;;;;;;;8.40;3.10;;;;;;;11.78;36.73;98810.78;5008891;28;20050;-67
2022/02/09 08:04:37;;;;;;;7.60;2.95;;;;;;;12.29;36.87;98820.06;4991418;28;20090;-67
2022/02/09 08:07:02;;;;;;;6.88;2.95;;;;;;;10.73;37.89;98821.91;4993363;28;20462;-66
2022/02/09 08:09:33;;;;;;;7.47;3.25;;;;;;;11.98;36.67;98827.41;4963321;28;20042;-66
2022/02/09 08:21:14;;;;;;;8.70;3.45;;;;;;;14.71;31.39;98814.44;4992840;28;20287;-67
2022/02/09 08:31:47;;;;;;;7.95;3.55;;;;;;;12.09;33.73;98821.56;5027328;28;20099;-67
2022/02/09 08:33:48;;;;;;;8.43;3.17;;;;;;;11.34;34.09;98823.03;4995654;28;20046;-66
2022/02/09 08:36:17;;;;;;;8.20;3.53;;;;;;;12.55;32.29;98825.06;4975390;28;20049;-66
2022/02/09 08:38:44;;;;;;;10.88;3.28;;;;;;;12.76;33.20;98826.19;4968088;28;20410;-68
2022/02/09 08:41:10;;;;;;;6.97;2.92;;;;;;;13.02;33.11;98825.78;4959365;28;20160;-67
2022/02/09 08:43:37;;;;;;;9.80;3.40;;;;;;;15.37;29.73;98802.25;5008873;28;20061;-67
2022/02/09 08:46:05;;;;;;;8.68;3.50;;;;;;;12.49;32.62;98819.53;5009652;28;20136;-66
2022/02/09 08:48:31;;;;;;;8.27;3.80;;;;;;;11.45;33.06;98820.97;4973305;28;20046;-67
2022/02/09 08:50:57;;;;;;;10.70;3.50;;;;;;;12.52;32.83;98811.88;4975647;28;20137;-67
2022/02/09 08:53:23;;;;;;;9.23;3.05;;;;;;;13.92;29.57;98813.72;4992023;28;20374;-67
2022/02/09 08:55:50;;;;;;;9.50;3.85;;;;;;;12.76;30.83;98805.38;4992168;28;20141;-68
2022/02/09 08:58:19;;;;;;;8.60;2.92;;;;;;;10.70;33.47;98816.81;4960948;28;20260;-68
2022/02/09 09:00:46;;;;;;;9.07;2.95;;;;;;;10.24;34.81;98815.66;5027703;28;20338;-67
2022/02/09 09:08:28;;;;;;;8.52;3.13;;;;;;;11.20;32.87;98821.06;5002402;28;20046;-67
2022/02/09 09:19:14;;;;;;;8.55;3.58;;;;;;;11.03;33.13;98822.13;4983840;28;20042;-75
2022/02/09 10:32:37;;;;;;;6.13;2.30;;;;;;;13.38;29.82;98803.28;4996881;28;20124;-67
2022/02/09 10:35:25;;;;;;;8.13;2.72;;;;;;;12.87;30.08;98800.47;4994185;28;20053;-66
2022/02/09 10:37:51;;;;;;;7.60;2.83;;;;;;;13.43;29.41;98806.28;5013455;28;20110;-67
2022/02/09 10:40:33;;;;;;;7.07;2.10;;;;;;;14.85;28.15;98790.91;4993275;28;20054;-66
2022/02/09 10:43:02;;;;;;;6.05;1.67;;;;;;;13.52;28.43;98796.97;5010131;28;20527;-67
2022/02/09 10:45:33;;;;;;;6.68;2.15;;;;;;;11.35;32.88;98808.47;5010954;28;20075;-68
2022/02/09 10:48:07;;;;;;;7.65;2.40;;;;;;;10.91;33.46;98807.31;5001290;28;20034;-67
2022/02/09 10:50:36;;;;;;;7.20;2.25;;;;;;;9.08;36.52;98807.56;5012820;28;20092;-67
2022/02/09 10:53:05;;;;;;;5.90;1.83;;;;;;;8.78;38.40;98803.56;4974491;28;20576;-66
2022/02/09 10:55:38;;;;;;;10.77;2.00;;;;;;;8.39;39.02;98812.06;5009782;28;20085;-66
2022/02/09 10:58:08;;;;;;;6.40;1.92;;;;;;;9.07;38.16;98812.13;4994973;28;20056;-66
2022/02/09 11:00:34;;;;;;;;;;;;;;;9.59;37.12;98811.09;5026836;28;20049;-67
2022/02/09 11:03:00;;;;;;;5.72;1.70;;;;;;;9.01;37.18;98772.31;4982679;28;19922;-66
2022/02/09 11:05:27;;;;;;;6.28;1.73;;;;;;;9.56;37.99;98801.47;4964403;28;20461;-67
2022/02/09 11:07:56;;;;;;;7.68;2.50;;;;;;;8.80;37.55;98772.72;5029411;28;20037;-67
2022/02/09 11:10:23;;;;;;;6.28;2.42;;;;;;;8.98;37.44;98787.97;5031130;28;20045;-66
2022/02/09 11:12:52;;;;;;;6.82;2.33;;;;;;;10.06;36.04;98783.47;5008726;28;20053;-67
2022/02/09 11:15:19;;;;;;;7.43;2.20;;;;;;;10.65;34.62;98792.19;4966198;28;20046;-66
2022/02/09 11:17:47;;;;;;;7.47;2.83;;;;;;;10.46;34.79;98797.97;4993305;28;20175;-66
2022/02/09 11:20:20;;;;;;;6.15;1.92;;;;;;;10.32;34.49;98792.25;5011237;28;20054;-67
2022/02/09 11:22:49;;;;;;;6.20;2.65;;;;;;;8.76;37.30;98781.31;5023852;28;20283;-67
2022/02/09 11:25:29;;;;;;;8.27;2.30;;;;;;;8.60;38.04;98801.78;5009738;28;20545;-67
2022/02/09 11:28:17;;;;;;;6.18;2.00;;;;;;;7.41;41.01;98806.66;4992527;28;20181;-66
2022/02/09 11:31:07;;;;;;;7.00;2.63;;;;;;;7.14;41.87;98804.84;4993364;28;20045;-66
2022/02/09 11:33:55;;;;;;;8.02;2.78;;;;;;;9.78;37.89;98805.38;5012018;28;20042;-66
2022/02/09 11:38:52;;;;;;;6.57;1.98;;;;;;;10.32;35.39;98803.06;4984651;28;20076;-67
2022/02/09 11:41:23;;;;;;;5.78;1.60;;;;;;;8.89;37.68;98809.50;4994007;28;20461;-67
2022/02/09 11:47:02;;;;;;;6.80;2.67;;;;;;;8.13;40.94;98822.78;4996746;28;20053;-67
2022/02/09 11:59:13;;;;;;;8.27;1.88;;;;;;;5.53;46.78;98812.00;5008017;28;20046;-67
2022/02/09 12:12:23;;;;;;;9.40;2.10;;;;;;;2.80;54.89;98833.63;5007221;28;20044;-66
2022/02/09 12:15:00;;;;;;;7.57;2.20;;;;;;;2.59;55.40;98826.34;4996010;28;20552;-65
2022/02/09 12:17:49;;;;;;;;;;;;;;;2.40;56.91;98823.44;5011577;28;20369;-65
2022/02/09 12:22:48;;;;;;;7.60;2.70;;;;;;;1.92;58.08;98820.94;4993820;28;20053;-65
2022/02/09 12:25:14;;;;;;;11.05;3.03;;;;;;;2.17;58.53;98831.41;4960636;28;20080;-66
2022/02/09 12:27:47;;;;;;;11.32;3.13;;;;;;;2.09;58.81;98831.16;4979043;28;20481;-66
2022/02/09 12:30:13;;;;;;;8.82;2.92;;;;;;;2.28;58.59;98832.41;4981677;28;20048;-65
2022/02/09 12:32:39;;;;;;;10.48;3.53;;;;;;;2.49;58.27;98840.56;4990445;28;20045;-66
2022/02/09 12:35:09;;;;;;;8.93;2.72;;;;;;;2.13;58.79;98848.63;4976575;28;20072;-66
2022/02/09 12:37:39;;;;;;;;;;;;;;;1.97;59.67;98850.75;5008017;28;20420;-66
2022/02/09 12:40:08;;;;;;;7.15;2.17;;;;;;;2.23;58.37;98846.09;5006337;28;19925;-65
2022/02/09 12:42:37;;;;;;;6.85;2.17;;;;;;;2.12;60.31;98843.38;5010120;28;20084;-66
2022/02/09 12:45:12;;;;;;;6.70;2.20;;;;;;;2.12;60.14;98844.25;5008274;28;20103;-65
2022/02/09 12:47:51;;;;;;;7.22;2.20;;;;;;;1.83;60.45;98850.94;5025045;28;20187;-66
2022/02/09 12:50:37;;;;;;;8.43;2.45;;;;;;;1.78;60.65;98851.28;5008206;28;20148;-65
2022/02/09 12:53:04;;;;;;;6.95;2.08;;;;;;;1.67;60.90;98843.25;4990803;28;20034;-65
2022/02/09 12:55:32;;;;;;;9.43;2.30;;;;;;;1.76;60.78;98836.41;4981542;28;20050;-65
2022/02/09 12:58:08;;;;;;;6.90;2.17;;;;;;;1.78;61.27;98839.78;4975158;28;20051;-65
2022/02/09 13:00:43;;;;;;;7.28;2.17;;;;;;;1.62;62.17;98851.59;5002944;28;20076;-66
2022/02/09 13:03:18;;;;;;;9.23;2.90;;;;;;;1.62;61.68;98850.75;4987572;28;20147;-66
2022/02/09 13:05:50;;;;;;;10.52;2.72;;;;;;;1.69;62.54;98857.31;4991162;28;20065;-67
2022/02/09 13:08:24;;;;;;;8.32;2.40;;;;;;;1.89;62.12;98853.16;5016834;28;20060;-66
2022/02/09 13:11:10;;;;;;;8.63;2.60;;;;;;;1.33;62.82;98876.88;5024295;28;20373;-65
2022/02/09 13:13:38;;;;;;;8.15;3.63;;;;;;;1.36;63.43;98861.53;4986328;28;20054;-65
2022/02/09 13:16:24;;;;;;;10.15;3.00;;;;;;;1.39;63.56;98871.09;4972063;28;20054;-65
2022/02/09 14:03:11;;;;;;;10.38;3.35;;;;;;;0.92;67.23;98865.59;5005960;28;20050;-66
2022/02/09 14:16:43;;;;;;;14.40;5.00;;;;;;;0.82;68.52;98877.00;4998640;28;20056;-65
2022/02/09 14:35:25;;;;;;;14.63;4.57;;;;;;;0.48;69.52;98874.06;4992578;28;20576;-64
2022/02/09 14:57:03;;;;;;;14.93;5.45;;;;;;;0.35;72.20;98883.84;5010799;28;20136;-65
2022/02/09 14:59:49;;;;;;;13.18;4.43;;;;;;;0.30;71.89;98891.28;5024467;28;20077;-65
2022/02/09 15:02:23;;;;;;;16.17;5.55;;;;;;;0.28;72.08;98877.25;5015425;28;20067;-66
2022/02/09 15:05:24;;;;;;;12.90;5.28;;;;;;;0.23;72.28;98870.44;5027504;28;20072;-65
2022/02/09 15:10:25;;;;;;;13.27;5.45;;;;;;;0.15;72.72;98878.09;4995338;28;20046;-65
2022/02/09 15:13:02;;;;;;;16.10;5.50;;;;;;;0.15;73.45;98883.41;4999087;28;20053;-65
2022/02/09 15:15:51;;;;;;;15.55;4.97;;;;;;;0.20;73.78;98886.59;5013680;28;20068;-65
2022/02/09 15:18:38;;;;;;;14.98;5.38;;;;;;;0.19;74.51;98890.22;4994720;28;20188;-65
2022/02/09 15:21:26;;;;;;;11.43;4.80;;;;;;;0.27;74.04;98896.81;4999688;28;20052;-65
2022/02/09 15:23:55;;;;;;;14.07;5.22;;;;;;;0.15;74.24;98898.50;4974648;28;20041;-65
2022/02/09 15:26:22;;;;;;;12.45;5.43;;;;;;;0.11;74.47;98891.69;5011180;28;20085;-66
2022/02/09 15:28:50;;;;;;;15.57;6.93;;;;;;;0.04;75.62;98896.59;5011746;28;20497;-65
2022/02/09 15:31:27;;;;;;;17.40;5.80;;;;;;;0.08;76.75;98897.22;4962064;28;20041;-65
2022/02/09 15:34:09;;;;;;;19.27;7.32;;;;;;;0.04;77.53;98895.69;4986754;28;20055;-66
2022/02/09 15:36:46;;;;;;;12.63;6.15;;;;;;;-0.08;78.53;98887.59;4945420;28;20077;-65
2022/02/09 15:39:16;;;;;;;15.90;6.05;;;;;;;-0.10;79.31;98904.63;4993606;28;20057;-62
2022/02/09 16:18:46;;;;;;;14.30;4.78;;;;;;;-0.66;92.79;98922.47;4975985;28;20030;-66
2022/02/09 16:23:21;;;;;;;14.90;4.75;;;;;;;-0.64;92.63;98925.88;4991920;28;20125;-64
2022/02/09 16:37:24;;;;;;;13.80;5.32;;;;;;;-0.68;93.89;98919.06;4992193;28;20174;-70
2022/02/09 16:45:02;;;;;;;18.30;5.80;;;;;;;-0.80;94.23;98916.25;5007646;28;20477;-65
2022/02/09 16:47:53;;;;;;;16.55;5.75;;;;;;;-0.77;94.66;98917.84;4962985;28;20046;-66
2022/02/09 16:50:28;;;;;;;17.23;5.95;;;;;;;-0.76;94.81;98907.13;4964083;28;20042;-65
2022/02/09 16:53:04;;;;;;;16.42;5.53;;;;;;;-0.66;93.98;98922.47;4972682;28;20561;-66
2022/02/09 17:19:58;;;;;;;13.13;5.20;;;;;;;-0.49;93.29;98924.88;4989248;28;20053;-66
2022/02/09 17:22:27;;;;;;;13.35;5.90;;;;;;;-0.54;92.97;98921.69;4994766;28;20039;-67
2022/02/09 17:24:55;;;;;;;15.65;6.13;;;;;;;-0.52;93.43;98925.06;4994325;28;20050;-67
2022/02/09 17:27:28;;;;;;;13.55;5.07;;;;;;;-0.46;93.53;98930.00;4989267;28;20046;-66
2022/02/09 17:33:07;;;;;;;14.05;6.57;;;;;;;-0.70;95.32;98916.50;5004066;28;20065;-67
2022/02/09 17:35:47;;;;;;;16.52;5.97;;;;;;;-0.70;96.42;98918.31;4963560;28;20147;-67
2022/02/09 17:57:36;;;;;;;18.40;7.35;;;;;;;-0.73;98.67;98912.25;5008424;28;20512;-70
2022/02/09 18:00:12;;;;;;;17.40;7.55;;;;;;;-0.93;98.13;98883.47;5028292;28;20073;-71
2022/02/09 18:02:40;;;;;;;18.25;7.75;;;;;;;-0.71;98.24;98906.84;5012689;28;20041;-71
2022/02/09 18:05:22;;;;;;;17.10;7.22;;;;;;;-0.95;98.29;98895.13;5041208;28;20040;-71
2022/02/09 18:07:53;;;;;;;16.90;7.57;;;;;;;-0.78;98.43;98900.22;5002889;28;20573;-71
2022/02/09 18:29:43;;;;;;;14.88;6.18;;;;;;;-0.39;95.13;98911.88;5021112;28;20040;-70
2022/02/09 18:59:25;;;;;;;13.23;6.57;;;;;;;-0.28;93.18;98901.38;5033884;28;20094;-68
2022/02/09 19:04:34;;;;;;;15.80;6.78;;;;;;;-0.21;92.94;98912.47;5110723;23;20058;-70
2022/02/09 19:15:14;;;;;;;18.25;7.80;;;;;;;-0.14;91.82;98892.50;4978316;28;20056;-70
2022/02/09 19:18:00;;;;;;;17.52;6.90;;;;;;;-0.18;91.84;98905.13;4976273;28;20100;-69
2022/02/09 19:20:43;;;;;;;16.60;7.00;;;;;;;-0.26;92.45;98903.00;4960979;28;20038;-70
2022/02/09 19:31:12;;;;;;;14.38;6.90;;;;;;;-0.19;91.92;98914.03;5010411;28;20091;-69
2022/02/09 19:57:26;;;;;;;15.98;7.13;;;;;;;-0.12;92.85;98906.53;4963020;28;20526;-70
2022/02/09 19:59:54;;;;;;;16.15;6.72;;;;;;;-0.10;92.55;98917.91;4974901;28;20046;-70
2022/02/09 20:02:20;;;;;;;15.43;6.75;;;;;;;-0.22;93.37;98914.25;4969155;28;20521;-69
2022/02/09 20:04:47;;;;;;;17.83;7.32;;;;;;;-0.23;92.84;98901.91;4956209;28;20038;-70
2022/02/09 20:07:13;;;;;;;14.70;6.15;;;;;;;-0.20;93.19;98914.16;4989054;28;20465;-70
2022/02/09 20:09:41;;;;;;;15.82;6.78;;;;;;;-0.30;93.28;98906.78;4974929;28;20054;-69
2022/02/09 20:12:07;;;;;;;13.68;6.75;;;;;;;-0.22;93.34;98910.72;4974210;28;20144;-70
2022/02/09 20:14:33;;;;;;;14.30;7.18;;;;;;;-0.21;93.62;98917.78;4960609;28;20050;-70
2022/02/09 20:16:59;;;;;;;16.10;6.80;;;;;;;-0.19;93.35;98915.84;4971570;28;20054;-70
2022/02/09 20:19:25;;;;;;;14.82;6.47;;;;;;;-0.14;93.00;98914.59;4970793;28;20045;-69
2022/02/09 20:21:51;;;;;;;17.90;7.28;;;;;;;-0.17;92.89;98913.97;4974292;28;20077;-70
2022/02/09 20:24:20;;;;;;;13.63;5.80;;;;;;;-0.19;92.96;98921.16;4963519;28;20422;-69
2022/02/09 20:26:46;;;;;;;14.00;6.85;;;;;;;-0.25;93.16;98917.97;4945296;28;20050;-69
2022/02/09 20:29:20;;;;;;;18.67;6.88;;;;;;;-0.17;93.32;98920.13;4958608;28;20042;-69
2022/02/09 20:31:52;;;;;;;15.13;6.28;;;;;;;-0.33;93.09;98901.69;5003711;28;20108;-68
2022/02/09 20:34:36;;;;;;;14.48;6.68;;;;;;;-0.30;93.49;98903.28;4960788;28;20086;-69
2022/02/09 20:37:03;;;;;;;15.80;7.38;;;;;;;-0.43;93.72;98897.94;4983348;28;20054;-69
2022/02/09 20:39:36;;;;;;;14.95;6.25;;;;;;;-0.38;93.98;98895.81;4936968;28;20538;-69
2022/02/09 22:27:23;;;;;;;13.98;4.82;;;;;;;-1.01;97.21;98904.34;4992976;28;20061;-65
2022/02/09 22:48:36;;;;;;;9.65;4.05;;;;;;;-1.16;96.74;98898.22;4991923;28;20097;-64
2022/02/09 22:56:31;;;;;;;10.55;3.72;;;;;;;-1.17;96.59;98885.03;4962159;28;20054;-64
2022/02/09 22:58:58;;;;;;;10.73;3.35;;;;;;;-1.13;96.31;98886.53;4944035;28;20097;-65
2022/02/09 23:01:48;;;;;;;10.48;3.70;;;;;;;-1.11;96.06;98884.66;4975906;28;20042;-64
2022/02/09 23:29:32;;;;;;;8.40;3.00;;;;;;;-1.03;92.96;98892.97;4978040;28;20054;-63
2022/02/09 23:56:36;;;;;;;10.40;2.67;;;;;;;-1.13;91.93;98879.47;4960466;28;20086;-63
